createdAt,value
2019-06-20T00:00:05.038Z,100505.15
2019-06-20T00:02:36.384Z,100459.98
2019-06-20T00:05:07.003Z,100395.52
2019-06-20T00:07:36.772Z,100393.91
2019-06-20T00:10:06.667Z,100411.66
2019-06-20T00:12:36.376Z,100426.15
2019-06-20T00:15:06.624Z,100434.84
2019-06-20T00:17:36.329Z,100429.91
2019-06-20T00:20:06.405Z,100441.91
2019-06-20T00:22:36.099Z,100422.49
2019-06-20T00:25:06.150Z,100405.94
2019-06-20T00:27:35.827Z,100397.95
2019-06-20T00:30:07.084Z,100393.95
2019-06-20T00:32:36.845Z,100385.72
2019-06-20T00:35:06.633Z,100373.48
2019-06-20T00:37:36.323Z,100356.65
2019-06-20T00:40:07.076Z,100352.30
2019-06-20T00:42:36.783Z,100351.84
2019-06-20T00:45:07.357Z,100342.91
2019-06-20T00:47:37.064Z,100349.27
2019-06-20T00:50:06.991Z,100337.27
2019-06-20T00:52:37.653Z,100344.55
2019-06-20T00:55:07.941Z,100338.78
2019-06-20T00:57:37.650Z,100333.98
2019-06-20T01:00:07.787Z,100330.94
2019-06-20T01:02:39.031Z,100339.18
2019-06-20T01:05:09.309Z,100350.23
2019-06-20T01:07:39.099Z,100358.34
2019-06-20T01:10:09.607Z,100363.61
2019-06-20T01:12:39.462Z,100374.66
2019-06-20T01:15:10.542Z,100380.42
2019-06-20T01:17:40.237Z,100386.39
2019-06-20T01:20:11.809Z,100398.28
2019-06-20T01:22:41.513Z,100392.52
2019-06-20T01:25:11.859Z,100401.58
2019-06-20T01:27:41.554Z,100395.33
2019-06-20T01:30:12.314Z,100392.88
2019-06-20T01:32:42.008Z,100411.31
2019-06-20T01:35:12.543Z,100408.49
2019-06-20T01:37:42.293Z,100426.59
2019-06-20T01:40:12.358Z,100434.70
2019-06-20T01:42:42.107Z,100440.45
2019-06-20T01:45:12.382Z,100453.38
2019-06-20T01:47:42.108Z,100471.23
2019-06-20T01:50:12.412Z,100490.47
2019-06-20T01:52:42.129Z,100498.13
2019-06-20T01:55:12.289Z,100480.91
2019-06-20T01:57:43.043Z,100459.95
2019-06-20T02:00:14.701Z,100447.73
2019-06-20T02:02:44.488Z,100421.90
2019-06-20T02:05:14.658Z,100401.16
2019-06-20T02:07:44.448Z,100392.48
2019-06-20T02:10:14.391Z,100380.92
2019-06-20T02:12:44.187Z,100370.48
2019-06-20T02:15:13.957Z,100341.36
2019-06-20T02:17:43.650Z,100327.16
2019-06-20T02:20:29.226Z,100338.43
2019-06-20T02:22:58.978Z,100308.46
2019-06-20T02:25:29.101Z,100295.06
2019-06-20T02:27:58.873Z,100253.39
2019-06-20T02:30:28.766Z,100245.66
2019-06-20T02:32:58.479Z,100264.90
2019-06-20T02:35:28.528Z,100266.44
2019-06-20T02:37:58.331Z,100267.61
2019-06-20T02:40:28.151Z,100272.31
2019-06-20T02:42:57.880Z,100292.26
2019-06-20T02:45:27.623Z,100287.43
2019-06-20T02:47:57.368Z,100286.96
2019-06-20T02:50:27.436Z,100292.26
2019-06-20T02:52:57.755Z,100304.23
2019-06-20T02:55:27.548Z,100308.44
2019-06-20T02:57:57.265Z,100299.83
2019-06-20T03:00:52.473Z,100306.52
2019-06-20T03:03:22.298Z,100302.95
2019-06-20T03:05:52.272Z,100306.81
2019-06-20T03:08:21.993Z,100306.55
2019-06-20T03:10:52.926Z,100321.44
2019-06-20T03:13:22.660Z,100318.08
2019-06-20T03:15:52.370Z,100321.36
2019-06-20T03:18:22.169Z,100335.77
2019-06-20T03:20:51.873Z,100332.95
2019-06-20T03:23:21.574Z,100340.59
2019-06-20T03:25:51.274Z,100335.30
2019-06-20T03:28:21.046Z,100330.28
2019-06-20T03:30:50.870Z,100329.16
2019-06-20T03:33:20.611Z,100343.27
2019-06-20T03:35:50.363Z,100352.80
2019-06-20T03:38:20.128Z,100353.53
2019-06-20T03:40:49.919Z,100357.91
2019-06-20T03:43:19.637Z,100359.91
2019-06-20T03:45:49.528Z,100362.91
2019-06-20T03:48:19.231Z,100369.05
2019-06-20T03:50:49.119Z,100374.90
2019-06-20T03:53:19.959Z,100381.43
2019-06-20T03:55:49.780Z,100378.25
2019-06-20T03:58:20.279Z,100375.15
2019-06-20T04:00:50.066Z,100374.84
2019-06-20T04:03:19.874Z,100369.25
2019-06-20T04:05:49.760Z,100371.73
2019-06-20T04:08:19.466Z,100383.23
2019-06-20T04:10:49.312Z,100376.55
2019-06-20T04:13:19.031Z,100391.16
2019-06-20T04:15:48.794Z,100391.03
2019-06-20T04:18:18.517Z,100388.13
2019-06-20T04:20:59.094Z,100401.92
2019-06-20T04:23:30.493Z,100396.14
2019-06-20T04:26:00.182Z,100393.37
2019-06-20T04:28:30.040Z,100390.31
2019-06-20T04:30:59.925Z,100396.08
2019-06-20T04:33:29.792Z,100399.53
2019-06-20T04:35:59.567Z,100405.09
2019-06-20T04:38:29.426Z,100404.52
2019-06-20T04:40:59.105Z,100404.52
2019-06-20T04:43:28.854Z,100403.31
2019-06-20T04:46:15.322Z,100413.58
2019-06-20T04:48:45.046Z,100427.17
2019-06-20T04:51:14.770Z,100404.70
2019-06-20T04:53:44.491Z,100409.45
2019-06-20T04:56:14.169Z,100409.56
2019-06-20T04:58:43.884Z,100419.00
2019-06-20T05:01:13.571Z,100429.87
2019-06-20T05:03:43.287Z,100453.80
2019-06-20T05:06:13.055Z,100453.80
2019-06-20T05:08:42.773Z,100448.60
2019-06-20T05:11:12.464Z,100448.60
2019-06-20T05:13:42.177Z,100456.04
2019-06-20T05:16:11.884Z,100447.55
2019-06-20T05:18:41.776Z,100460.23
2019-06-20T05:21:11.535Z,100452.55
2019-06-20T05:23:41.320Z,100462.58
2019-06-20T05:26:11.100Z,100460.92
2019-06-20T05:28:40.843Z,100461.92
2019-06-20T05:31:10.602Z,100468.27
2019-06-20T05:33:40.318Z,100474.20
2019-06-20T05:36:10.076Z,100481.05
2019-06-20T05:38:39.787Z,100478.58
2019-06-20T05:41:09.592Z,100474.84
2019-06-20T05:43:39.313Z,100487.65
2019-06-20T05:46:11.153Z,100497.17
2019-06-20T05:48:40.495Z,100501.48
2019-06-20T05:51:10.281Z,100498.02
2019-06-20T05:53:40.012Z,100497.63
2019-06-20T05:56:09.789Z,100485.22
2019-06-20T05:58:39.480Z,100504.31
2019-06-20T06:01:09.307Z,100487.41
2019-06-20T06:03:39.067Z,100489.13
2019-06-20T06:06:08.785Z,100497.34
2019-06-20T06:08:38.461Z,100500.45
2019-06-20T06:11:08.476Z,100501.48
2019-06-20T06:13:38.305Z,100508.27
2019-06-20T06:16:08.260Z,100516.66
2019-06-20T06:18:37.950Z,100513.82
2019-06-20T06:21:07.745Z,100523.33
2019-06-20T06:23:37.464Z,100525.59
2019-06-20T06:26:07.458Z,100535.28
2019-06-20T06:28:37.202Z,100535.28
2019-06-20T06:31:06.901Z,100539.57
2019-06-20T06:33:36.644Z,100541.48
2019-06-20T06:36:06.458Z,100547.98
2019-06-20T06:38:36.140Z,100547.34
2019-06-20T06:41:06.982Z,100551.53
2019-06-20T06:43:41.762Z,100569.98
2019-06-20T06:46:08.210Z,100569.98
2019-06-20T06:48:37.977Z,100564.86
2019-06-20T06:51:07.718Z,100566.51
2019-06-20T06:53:37.496Z,100575.10
2019-06-20T06:56:07.217Z,100582.70
2019-06-20T06:58:36.912Z,100565.78
2019-06-20T07:01:10.122Z,100582.70
2019-06-20T07:03:37.996Z,100580.50
2019-06-20T07:06:07.826Z,100588.36
2019-06-20T07:08:37.623Z,100598.86
2019-06-20T07:11:07.312Z,100591.37
2019-06-20T07:13:37.234Z,100600.59
2019-06-20T07:16:07.200Z,100596.03
2019-06-20T07:18:36.975Z,100592.63
2019-06-20T07:21:06.683Z,100599.13
2019-06-20T07:23:36.410Z,100595.43
2019-06-20T07:26:06.311Z,100602.13
2019-06-20T07:28:36.005Z,100602.27
2019-06-20T07:31:06.038Z,100601.55
2019-06-20T07:33:35.836Z,100597.84
2019-06-20T07:36:06.277Z,100593.47
2019-06-20T07:38:36.002Z,100598.75
2019-06-20T07:41:05.706Z,100591.63
2019-06-20T07:43:35.405Z,100597.59
2019-06-20T07:46:06.235Z,100600.78
2019-06-20T07:48:36.047Z,100595.02
2019-06-20T07:51:06.471Z,100594.03
2019-06-20T07:53:36.166Z,100575.04
2019-06-20T07:56:09.313Z,100574.09
2019-06-20T07:58:37.342Z,100583.00
2019-06-20T08:01:07.114Z,100587.42
2019-06-20T08:03:36.814Z,100581.35
2019-06-20T08:06:06.875Z,100583.95
2019-06-20T08:08:36.579Z,100574.77
2019-06-20T08:11:06.293Z,100580.00
2019-06-20T08:13:36.030Z,100586.91
2019-06-20T08:16:05.922Z,100578.28
2019-06-20T08:18:35.632Z,100573.04
2019-06-20T08:21:05.496Z,100574.00
2019-06-20T08:23:35.192Z,100584.11
2019-06-20T08:26:05.173Z,100588.70
2019-06-20T08:28:34.861Z,100578.89
2019-06-20T08:31:04.861Z,100581.87
2019-06-20T08:33:34.779Z,100577.75
2019-06-20T08:36:04.681Z,100575.69
2019-06-20T08:38:34.354Z,100581.32
2019-06-20T08:41:06.465Z,100573.58
2019-06-20T08:43:35.740Z,100571.38
2019-06-20T08:46:09.928Z,100570.29
2019-06-20T08:48:35.303Z,100558.58
2019-06-20T08:51:04.523Z,100565.23
2019-06-20T08:53:33.586Z,100562.81
2019-06-20T08:56:03.223Z,100564.25
2019-06-20T08:58:32.090Z,100569.03
2019-06-20T09:03:31.351Z,100554.91
2019-06-20T09:06:00.183Z,100559.97
2019-06-20T09:08:29.210Z,100559.37
2019-06-20T09:10:57.951Z,100556.35
2019-06-20T09:13:26.735Z,100563.32
2019-06-20T09:15:56.737Z,100558.17
2019-06-20T09:18:25.804Z,100563.61
2019-06-20T09:20:55.871Z,100558.83
2019-06-20T09:23:24.836Z,100562.77
2019-06-20T09:25:53.607Z,100554.34
2019-06-20T09:28:22.442Z,100559.38
2019-06-20T09:30:52.225Z,100551.00
2019-06-20T09:33:21.625Z,100553.86
2019-06-20T09:35:52.698Z,100554.86
2019-06-20T09:38:23.889Z,100564.66
2019-06-20T09:40:54.773Z,100565.47
2019-06-20T09:43:27.770Z,100564.80
2019-06-20T09:45:56.141Z,100564.88
2019-06-20T09:48:26.010Z,100560.20
2019-06-20T09:50:56.930Z,100564.57
2019-06-20T09:53:26.851Z,100572.33
2019-06-20T09:55:57.778Z,100570.95
2019-06-20T09:58:27.576Z,100583.70
2019-06-20T10:00:57.541Z,100581.48
2019-06-20T10:03:27.512Z,100579.17
2019-06-20T10:05:57.373Z,100584.19
2019-06-20T10:08:27.116Z,100580.37
2019-06-20T10:10:56.805Z,100587.83
2019-06-20T10:13:26.776Z,100586.98
2019-06-20T10:15:56.695Z,100586.84
2019-06-20T10:18:26.441Z,100577.34
2019-06-20T10:20:57.661Z,100590.73
2019-06-20T10:23:27.404Z,100589.91
2019-06-20T10:25:58.275Z,100594.73
2019-06-20T10:28:28.062Z,100597.29
2019-06-20T10:30:58.046Z,100583.81
2019-06-20T10:33:27.848Z,100576.30
2019-06-20T10:35:57.577Z,100591.82
2019-06-20T10:38:28.324Z,100587.19
2019-06-20T10:40:59.991Z,100594.22
2019-06-20T10:43:29.664Z,100589.00
2019-06-20T10:45:59.345Z,100592.55
2019-06-20T10:48:29.219Z,100595.76
2019-06-20T10:51:17.938Z,100595.27
2019-06-20T10:53:49.194Z,100598.35
2019-06-20T10:56:19.094Z,100595.67
2019-06-20T10:58:48.802Z,100604.78
2019-06-20T11:01:18.582Z,100589.77
2019-06-20T11:03:49.912Z,100599.60
2019-06-20T11:06:19.857Z,100602.36
2019-06-20T11:08:49.493Z,100603.76
2019-06-20T11:11:19.301Z,100603.83
2019-06-20T11:13:48.605Z,100594.55
2019-06-20T11:16:18.164Z,100603.53
2019-06-20T11:18:47.045Z,100604.51
2019-06-20T11:21:16.666Z,100611.82
2019-06-20T11:23:47.414Z,100613.59
2019-06-20T11:26:17.155Z,100607.56
2019-06-20T11:28:48.647Z,100608.66
2019-06-20T11:31:18.445Z,100600.09
2019-06-20T11:33:48.446Z,100604.23
2019-06-20T11:36:19.176Z,100612.31
2019-06-20T11:38:49.949Z,100605.16
2019-06-20T11:41:19.696Z,100604.44
2019-06-20T11:43:49.508Z,100607.21
2019-06-20T11:46:19.297Z,100612.86
2019-06-20T11:48:48.984Z,100615.66
2019-06-20T11:51:18.705Z,100623.87
2019-06-20T11:53:48.496Z,100616.03
2019-06-20T11:56:18.253Z,100603.20
2019-06-20T11:58:47.958Z,100616.37
2019-06-20T12:01:32.094Z,100613.13
2019-06-20T12:03:49.165Z,100620.61
2019-06-20T12:06:18.883Z,100626.36
2019-06-20T12:08:48.958Z,100635.62
2019-06-20T12:11:18.877Z,100628.75
2019-06-20T12:13:48.698Z,100625.91
2019-06-20T12:16:17.625Z,100628.37
2019-06-20T12:18:47.299Z,100625.94
2019-06-20T12:21:16.289Z,100630.42
2019-06-20T12:23:45.085Z,100621.04
2019-06-20T12:26:13.857Z,100624.70
2019-06-20T12:28:42.579Z,100620.09
2019-06-20T12:31:19.344Z,100623.70
2019-06-20T12:33:42.609Z,100613.15
2019-06-20T12:36:12.312Z,100617.30
2019-06-20T12:38:43.239Z,100612.67
2019-06-20T12:41:14.483Z,100612.23
2019-06-20T12:43:44.458Z,100605.21
2019-06-20T12:46:14.184Z,100610.69
2019-06-20T12:48:45.067Z,100608.02
2019-06-20T12:51:14.892Z,100600.31
2019-06-20T12:53:44.587Z,100608.31
2019-06-20T12:56:16.003Z,100604.12
2019-06-20T12:58:46.697Z,100606.56
2019-06-20T13:01:16.613Z,100614.70
2019-06-20T13:03:46.440Z,100611.02
2019-06-20T13:06:16.189Z,100601.20
2019-06-20T13:08:47.298Z,100603.34
2019-06-20T13:11:17.943Z,100593.55
2019-06-20T13:13:48.970Z,100598.80
2019-06-20T13:16:18.897Z,100593.16
2019-06-20T13:18:50.430Z,100591.27
2019-06-20T13:21:21.138Z,100594.50
2019-06-20T13:23:50.942Z,100596.87
2019-06-20T13:26:20.641Z,100593.56
2019-06-20T13:29:03.536Z,100591.92
2019-06-20T13:31:21.821Z,100596.47
2019-06-20T13:33:51.526Z,100597.36
2019-06-20T13:36:21.227Z,100586.30
2019-06-20T13:38:50.998Z,100598.73
2019-06-20T13:41:20.868Z,100599.70
2019-06-20T13:43:50.557Z,100602.58
2019-06-20T13:46:20.304Z,100583.40
2019-06-20T13:48:50.079Z,100586.68
2019-06-20T13:51:19.817Z,100596.47
2019-06-20T13:53:50.657Z,100598.12
2019-06-20T13:56:20.618Z,100592.38
2019-06-20T13:58:51.189Z,100583.75
2019-06-20T14:01:20.979Z,100591.52
2019-06-20T14:03:50.915Z,100595.98
2019-06-20T14:06:21.788Z,100582.86
2019-06-20T14:08:51.478Z,100589.42
2019-06-20T14:11:21.207Z,100586.59
2019-06-20T14:14:10.925Z,100588.24
2019-06-20T14:16:41.339Z,100575.93
2019-06-20T14:19:12.675Z,100575.03
2019-06-20T14:21:43.765Z,100572.08
2019-06-20T14:24:13.579Z,100579.45
2019-06-20T14:26:45.069Z,100577.03
2019-06-20T14:29:14.768Z,100565.53
2019-06-20T14:31:45.524Z,100574.12
2019-06-20T14:34:15.254Z,100576.20
2019-06-20T14:36:46.697Z,100566.50
2019-06-20T14:39:16.330Z,100584.09
2019-06-20T14:41:46.426Z,100572.63
2019-06-20T14:44:16.260Z,100571.03
2019-06-20T14:46:46.043Z,100570.27
2019-06-20T14:49:15.818Z,100575.98
2019-06-20T14:51:47.136Z,100583.29
2019-06-20T14:54:19.690Z,100597.22
2019-06-20T14:56:49.640Z,100596.02
2019-06-20T14:59:19.605Z,100605.04
2019-06-20T15:01:50.620Z,100605.48
2019-06-20T15:04:20.457Z,100605.86
2019-06-20T15:06:50.581Z,100607.10
2019-06-20T15:09:20.327Z,100599.78
2019-06-20T15:11:51.285Z,100594.88
2019-06-20T15:14:21.134Z,100598.52
2019-06-20T15:16:51.257Z,100597.66
2019-06-20T15:19:21.133Z,100615.59
2019-06-20T15:21:52.086Z,100613.13
2019-06-20T15:24:21.857Z,100610.25
2019-06-20T15:26:52.451Z,100613.09
2019-06-20T15:29:22.230Z,100613.47
2019-06-20T15:31:52.657Z,100610.66
2019-06-20T15:34:22.509Z,100605.42
2019-06-20T15:36:53.390Z,100611.19
2019-06-20T15:39:23.226Z,100605.46
2019-06-20T15:41:54.169Z,100602.16
2019-06-20T15:44:23.972Z,100605.80
2019-06-20T15:46:53.689Z,100607.34
2019-06-20T15:49:23.383Z,100612.21
2019-06-20T15:51:53.096Z,100597.90
2019-06-20T15:54:24.583Z,100599.56
2019-06-20T15:56:54.406Z,100590.62
2019-06-20T15:59:24.134Z,100584.52
2019-06-20T16:01:53.860Z,100593.17
2019-06-20T16:04:23.564Z,100601.33
2019-06-20T16:06:53.365Z,100597.67
2019-06-20T16:09:23.525Z,100587.84
2019-06-20T16:11:53.330Z,100582.89
2019-06-20T16:14:23.156Z,100596.33
2019-06-20T16:16:52.866Z,100593.84
2019-06-20T16:19:22.751Z,100602.84
2019-06-20T16:21:52.479Z,100595.48
2019-06-20T16:24:22.193Z,100587.31
2019-06-20T16:26:52.026Z,100593.06
2019-06-20T16:29:21.784Z,100594.33
2019-06-20T16:31:51.528Z,100600.08
2019-06-20T16:34:21.337Z,100597.64
2019-06-20T16:36:51.165Z,100602.48
2019-06-20T16:39:20.883Z,100600.41
2019-06-20T16:41:50.600Z,100608.16
2019-06-20T16:44:21.844Z,100609.36
2019-06-20T16:46:51.786Z,100606.03
2019-06-20T16:49:21.489Z,100605.98
2019-06-20T16:51:51.281Z,100600.55
2019-06-20T16:54:21.066Z,100604.94
2019-06-20T16:56:51.198Z,100599.95
2019-06-20T16:59:20.903Z,100592.22
2019-06-20T17:01:50.819Z,100588.98
2019-06-20T17:04:20.654Z,100586.20
2019-06-20T17:06:50.422Z,100593.59
2019-06-20T17:09:20.345Z,100598.11
2019-06-20T17:11:50.852Z,100597.73
2019-06-20T17:14:20.897Z,100595.67
2019-06-20T17:16:50.737Z,100600.97
2019-06-20T17:19:20.523Z,100594.84
2019-06-20T17:21:50.514Z,100609.95
2019-06-20T17:24:20.376Z,100618.11
2019-06-20T17:26:50.260Z,100620.09
2019-06-20T17:29:19.991Z,100623.28
2019-06-20T17:31:49.807Z,100625.72
2019-06-20T17:34:19.537Z,100622.39
2019-06-20T17:36:49.470Z,100626.01
2019-06-20T17:39:19.401Z,100620.67
2019-06-20T17:41:55.264Z,100616.59
2019-06-20T17:44:20.522Z,100611.65
2019-06-20T17:46:50.923Z,100614.50
2019-06-20T17:49:20.611Z,100622.63
2019-06-20T17:51:51.335Z,100615.16
2019-06-20T17:54:22.027Z,100628.88
2019-06-20T17:56:51.864Z,100623.50
2019-06-20T17:59:22.853Z,100623.86
2019-06-20T18:01:52.762Z,100624.20
2019-06-20T18:04:22.475Z,100621.28
2019-06-20T18:06:52.179Z,100622.45
2019-06-20T18:09:21.891Z,100632.61
2019-06-20T18:11:51.589Z,100632.48
2019-06-20T18:14:21.329Z,100636.89
2019-06-20T18:16:51.388Z,100636.03
2019-06-20T18:19:21.329Z,100632.33
2019-06-20T18:21:52.098Z,100637.59
2019-06-20T18:24:21.871Z,100650.20
2019-06-20T18:26:51.559Z,100655.05
2019-06-20T18:29:21.361Z,100651.33
2019-06-20T18:31:51.232Z,100648.83
2019-06-20T18:34:30.115Z,100655.68
2019-06-20T18:36:52.400Z,100651.16
2019-06-20T18:39:22.191Z,100662.90
2019-06-20T18:41:51.895Z,100664.02
2019-06-20T18:44:21.744Z,100668.41
2019-06-20T18:46:51.464Z,100674.78
2019-06-20T18:49:21.226Z,100678.80
2019-06-20T18:51:51.022Z,100684.37
2019-06-20T18:54:20.796Z,100685.14
2019-06-20T18:56:50.649Z,100690.72
2019-06-20T18:59:20.464Z,100686.13
2019-06-20T19:01:52.292Z,100687.66
2019-06-20T19:04:22.181Z,100690.03
2019-06-20T19:06:51.969Z,100688.69
2019-06-20T19:09:21.897Z,100691.05
2019-06-20T19:11:51.808Z,100691.37
2019-06-20T19:14:21.566Z,100692.51
2019-06-20T19:16:51.352Z,100694.76
2019-06-20T19:19:21.063Z,100698.17
2019-06-20T19:21:50.823Z,100703.16
2019-06-20T19:24:20.654Z,100711.11
2019-06-20T19:26:50.511Z,100713.30
2019-06-20T19:29:20.194Z,100712.27
2019-06-20T19:31:49.895Z,100718.16
2019-06-20T19:34:19.976Z,100732.97
2019-06-20T19:36:50.252Z,100729.15
2019-06-20T19:39:19.928Z,100732.73
2019-06-20T19:41:49.830Z,100727.80
2019-06-20T19:44:19.551Z,100729.75
2019-06-20T19:46:49.266Z,100744.69
2019-06-20T19:49:19.045Z,100743.40
2019-06-20T19:51:48.896Z,100735.63
2019-06-20T19:54:18.865Z,100734.08
2019-06-20T19:56:48.726Z,100738.72
2019-06-20T19:59:18.572Z,100733.19
2019-06-20T20:01:48.648Z,100735.72
2019-06-20T20:04:18.595Z,100732.05
2019-06-20T20:06:48.608Z,100743.50
2019-06-20T20:09:18.539Z,100740.80
2019-06-20T20:11:48.310Z,100744.33
2019-06-20T20:14:18.041Z,100742.75
2019-06-20T20:16:47.907Z,100750.12
2019-06-20T20:19:17.580Z,100762.05
2019-06-20T20:21:47.312Z,100768.02
2019-06-20T20:24:17.012Z,100766.73
2019-06-20T20:26:46.707Z,100772.98
2019-06-20T20:29:16.476Z,100764.27
2019-06-20T20:31:46.180Z,100769.67
2019-06-20T20:34:15.894Z,100762.45
2019-06-20T20:36:45.606Z,100757.45
2019-06-20T20:39:17.012Z,100761.37
2019-06-20T20:41:46.707Z,100767.77
2019-06-20T20:44:16.408Z,100771.34
2019-06-20T20:46:46.200Z,100779.12
2019-06-20T20:49:15.996Z,100775.20
2019-06-20T20:51:45.684Z,100786.25
2019-06-20T20:54:15.453Z,100800.52
2019-06-20T20:56:45.167Z,100792.21
2019-06-20T20:59:14.882Z,100806.70
2019-06-20T21:01:44.585Z,100807.95
2019-06-20T21:04:14.300Z,100810.13
2019-06-20T21:06:44.020Z,100802.30
2019-06-20T21:09:13.768Z,100806.44
2019-06-20T21:11:43.521Z,100806.58
2019-06-20T21:14:13.267Z,100794.10
2019-06-20T21:16:42.970Z,100808.47
2019-06-20T21:19:13.139Z,100818.06
2019-06-20T21:21:42.883Z,100816.16
2019-06-20T21:24:13.037Z,100821.09
2019-06-20T21:26:49.356Z,100818.72
2019-06-20T21:29:14.188Z,100825.30
2019-06-20T21:31:43.939Z,100829.98
2019-06-20T21:34:13.666Z,100841.03
2019-06-20T21:36:43.371Z,100851.38
2019-06-20T21:39:13.095Z,100901.85
2019-06-20T21:41:42.811Z,100912.76
2019-06-20T21:44:12.579Z,100915.05
2019-06-20T21:46:42.933Z,100914.23
2019-06-20T21:49:14.782Z,100941.13
2019-06-20T21:51:44.936Z,100971.16
2019-06-20T21:54:14.856Z,100975.38
2019-06-20T21:56:44.661Z,100976.34
2019-06-20T21:59:14.464Z,100982.63
2019-06-20T22:01:48.104Z,100979.31
2019-06-20T22:04:15.973Z,100973.03
2019-06-20T22:06:45.647Z,100969.75
2019-06-20T22:09:15.449Z,100959.15
2019-06-20T22:11:46.114Z,100948.55
2019-06-20T22:14:16.152Z,100930.20
2019-06-20T22:16:45.836Z,100917.78
2019-06-20T22:19:15.536Z,100915.13
2019-06-20T22:21:45.380Z,100920.27
2019-06-20T22:24:15.144Z,100925.20
2019-06-20T22:26:44.915Z,100928.52
2019-06-20T22:29:14.700Z,100930.36
2019-06-20T22:31:44.417Z,100916.30
2019-06-20T22:34:14.206Z,100926.05
2019-06-20T22:36:43.941Z,100918.94
2019-06-20T22:39:13.679Z,100917.44
2019-06-20T22:41:43.424Z,100909.36
2019-06-20T22:44:13.119Z,100900.26
2019-06-20T22:46:42.834Z,100911.00
2019-06-20T22:49:12.529Z,100919.48
2019-06-20T22:51:42.240Z,100928.25
2019-06-20T22:54:11.963Z,100932.58
2019-06-20T22:56:41.771Z,100939.50
2019-06-20T22:59:11.559Z,100937.50
2019-06-20T23:01:41.390Z,100936.48
2019-06-20T23:04:12.103Z,100937.78
2019-06-20T23:06:55.445Z,100930.31
2019-06-20T23:09:13.236Z,100931.62
2019-06-20T23:11:42.981Z,100940.20
2019-06-20T23:14:12.728Z,100946.64
2019-06-20T23:16:43.554Z,100954.27
2019-06-20T23:19:13.244Z,100957.23
2019-06-20T23:21:42.987Z,100965.47
2019-06-20T23:24:12.745Z,100968.63
2019-06-20T23:26:45.475Z,100965.81
2019-06-20T23:29:23.787Z,100979.89
2019-06-20T23:31:54.959Z,100983.70
2019-06-20T23:34:24.636Z,100979.08
2019-06-20T23:36:54.343Z,100984.40
2019-06-20T23:39:24.104Z,100987.71
2019-06-20T23:41:53.871Z,100980.47
2019-06-20T23:44:23.622Z,100984.78
2019-06-20T23:46:53.326Z,100992.23
2019-06-20T23:49:23.018Z,100987.79
2019-06-20T23:51:58.209Z,100981.16
2019-06-20T23:54:27.970Z,100976.53
2019-06-20T23:56:57.755Z,100980.69
2019-06-20T23:59:27.473Z,100988.32
